| time (UTC) | temp F | wind direction | speed knots | gust knots | rain 1hr in | rain 24hr in | rain mn in | humidity % | barometer mb |
| 20260510094518 | 50 | 248 | 0.0 | 0.0 | 0.00 | 0.09 | 0.00 | 96 | 1010.6 |
| 20260510093030 | 50 | 248 | 0.0 | 0.0 | 0.00 | 0.09 | 0.00 | 96 | 1010.2 |
| 20260510091526 | 51 | 248 | 0.0 | 0.0 | 0.00 | 0.09 | 0.00 | 96 | 1010.7 |
| 20260510090039 | 51 | 248 | 0.0 | 0.0 | 0.00 | 0.09 | 0.00 | 96 | 1010.4 |
| 20260510084529 | 51 | 248 | 0.0 | 0.0 | 0.00 | 0.09 | 0.00 | 96 | 1010.6 |
| 20260510083017 | 50 | 9 | 0.0 | 0.0 | 0.00 | 0.09 | 0.00 | 96 | 1010.5 |
| 20260510081524 | 50 | 9 | 0.0 | 1.7 | 0.00 | 0.09 | 0.00 | 96 | 1010.8 |
| 20260510080023 | 50 | 22 | 0.0 | 1.7 | 0.00 | 0.09 | 0.00 | 96 | 1010.7 |
| 20260510074525 | 50 | 350 | 0.9 | 1.7 | 0.00 | 0.09 | 0.00 | 96 | 1010.9 |
| 20260510073016 | 50 | 11 | 0.9 | 4.3 | 0.00 | 0.09 | 0.00 | 96 | 1010.5 |
| 20260510071523 | 50 | 352 | 0.9 | 3.5 | 0.00 | 0.09 | 0.00 | 96 | 1010.4 |
| 20260510070027 | 49 | 188 | 0.0 | 0.0 | 0.00 | 0.09 | 0.00 | 96 | 1010.0 |
| 20260510064528 | 49 | 170 | 0.0 | 0.0 | 0.00 | 0.09 | 0.00 | 96 | 1010.1 |
| 20260510063027 | 49 | 142 | 0.0 | 0.0 | 0.00 | 0.09 | 0.00 | 96 | 1010.3 |
| 20260510061518 | 49 | 142 | 0.0 | 0.0 | 0.00 | 0.09 | 0.00 | 96 | 1010.4 |
| 20260510060021 | 48 | 18 | 0.0 | 0.9 | 0.00 | 0.09 | 0.00 | 95 | 1010.7 |
| 20260510054524 | 48 | 229 | 0.0 | 0.0 | 0.00 | 0.09 | 0.00 | 94 | 1010.1 |
| 20260510053026 | 49 | 229 | 0.0 | 0.0 | 0.00 | 0.09 | 0.00 | 95 | 1010.0 |
| 20260510051529 | 50 | 229 | 0.0 | 0.9 | 0.00 | 0.09 | 0.00 | 95 | 1010.1 |
| 20260510050016 | 49 | 244 | 0.0 | 0.9 | 0.00 | 0.09 | 0.00 | 95 | 1010.2 |
| 20260510044503 | 49 | 230 | 0.0 | 0.0 | 0.00 | 0.09 | 0.00 | 95 | 1010.4 |
| 20260510043010 | 49 | 230 | 0.0 | 0.0 | 0.00 | 0.09 | 0.00 | 94 | 1010.4 |
| 20260510041512 | 49 | 230 | 0.0 | 0.0 | 0.00 | 0.09 | 0.00 | 94 | 1010.5 |
| 20260510040017 | 49 | 300 | 0.0 | 0.0 | 0.00 | 0.09 | 0.00 | 93 | 1010.4 |
| 20260510034519 | 50 | 241 | 0.0 | 0.0 | 0.00 | 0.09 | 0.09 | 94 | 1010.4 |
| 20260510033005 | 50 | 241 | 0.0 | 0.0 | 0.00 | 0.09 | 0.09 | 94 | 1010.4 |
| 20260510031510 | 50 | 243 | 0.0 | 0.0 | 0.00 | 0.09 | 0.09 | 93 | 1010.3 |
| 20260510030024 | 50 | 243 | 0.0 | 0.0 | 0.00 | 0.09 | 0.09 | 93 | 1010.3 |
| 20260510024519 | 51 | 243 | 0.0 | 0.0 | 0.00 | 0.09 | 0.09 | 92 | 1010.2 |
| 20260510023022 | 51 | 243 | 0.0 | 0.0 | 0.00 | 0.09 | 0.09 | 92 | 1010.2 |
| 20260510021513 | 52 | 243 | 0.0 | 0.0 | 0.00 | 0.09 | 0.09 | 92 | 1009.9 |
| 20260510020012 | 53 | 243 | 0.0 | 0.0 | 0.00 | 0.09 | 0.09 | 92 | 1009.9 |
| 20260510014519 | 53 | 221 | 0.0 | 1.7 | 0.00 | 0.09 | 0.09 | 92 | 1010.0 |
| 20260510013024 | 54 | 265 | 0.0 | 0.9 | 0.00 | 0.09 | 0.09 | 92 | 1009.9 |
| 20260510011506 | 54 | 250 | 0.0 | 1.7 | 0.00 | 0.09 | 0.09 | 92 | 1009.9 |
| 20260510010011 | 54 | 190 | 0.0 | 1.7 | 0.00 | 0.09 | 0.09 | 90 | 1009.7 |
| 20260510004513 | 54 | 190 | 0.0 | 0.0 | 0.00 | 0.09 | 0.09 | 89 | 1009.5 |
| 20260510003024 | 55 | 158 | 0.0 | 1.7 | 0.00 | 0.09 | 0.09 | 88 | 1009.5 |
| 20260510001522 | 56 | 143 | 0.0 | 1.7 | 0.00 | 0.09 | 0.09 | 87 | 1009.2 |
| 20260510000008 | 57 | 64 | 0.0 | 1.7 | 0.00 | 0.09 | 0.09 | 84 | 1009.0 |
| 20260509234515 | 57 | 244 | 0.0 | 3.5 | 0.00 | 0.09 | 0.09 | 82 | 1009.0 |
| 20260509233022 | 58 | 253 | 0.0 | 2.6 | 0.00 | 0.09 | 0.09 | 80 | 1009.1 |
| 20260509231522 | 59 | 255 | 0.9 | 2.6 | 0.00 | 0.09 | 0.09 | 77 | 1009.2 |
| 20260509230022 | 60 | 219 | 0.9 | 1.7 | 0.00 | 0.09 | 0.09 | 75 | 1009.0 |
| 20260509224507 | 60 | 178 | 0.0 | 1.7 | 0.00 | 0.09 | 0.09 | 75 | 1008.9 |
| 20260509223016 | 59 | 271 | 0.9 | 3.5 | 0.00 | 0.09 | 0.09 | 76 | 1009.1 |
| 20260509221518 | 58 | 288 | 1.7 | 2.6 | 0.00 | 0.09 | 0.09 | 79 | 1009.2 |
| 20260509220022 | 58 | 281 | 0.9 | 3.5 | 0.00 | 0.09 | 0.09 | 80 | 1009.1 |
| 20260509214506 | 58 | 294 | 0.0 | 1.7 | 0.00 | 0.09 | 0.09 | 83 | 1009.2 |
| 20260509213011 | 57 | 352 | 0.0 | 2.6 | 0.00 | 0.09 | 0.09 | 82 | 1009.0 |
| 20260509211515 | 57 | 240 | 0.9 | 3.5 | 0.00 | 0.09 | 0.09 | 83 | 1009.2 |
| 20260509210021 | 57 | 258 | 0.9 | 2.6 | 0.00 | 0.09 | 0.09 | 82 | 1009.5 |
| 20260509204523 | 58 | 5 | 0.9 | 3.5 | 0.00 | 0.09 | 0.09 | 86 | 1009.6 |
| 20260509203021 | 57 | 250 | 0.0 | 1.7 | 0.00 | 0.09 | 0.09 | 85 | 1009.6 |
| 20260509201515 | 56 | 242 | 0.9 | 2.6 | 0.01 | 0.09 | 0.09 | 85 | 1009.5 |
| 20260509200018 | 56 | 222 | 0.9 | 2.6 | 0.01 | 0.09 | 0.09 | 86 | 1009.6 |
| 20260509194526 | 56 | 231 | 0.0 | 1.7 | 0.02 | 0.09 | 0.09 | 88 | 1009.8 |
| 20260509193007 | 55 | 216 | 0.0 | 1.7 | 0.02 | 0.09 | 0.09 | 89 | 1009.9 |
| 20260509191516 | 54 | 32 | 0.0 | 0.9 | 0.02 | 0.08 | 0.08 | 88 | 1010.4 |
| 20260509190019 | 54 | 257 | 0.0 | 1.7 | 0.04 | 0.08 | 0.08 | 88 | 1010.7 |
| 20260509184529 | 54 | 252 | 0.0 | 1.7 | 0.03 | 0.07 | 0.07 | 87 | 1011.0 |
| 20260509183007 | 55 | 313 | 0.0 | 2.6 | 0.03 | 0.07 | 0.07 | 88 | 1011.0 |
| 20260509181507 | 55 | 65 | 0.0 | 1.7 | 0.02 | 0.06 | 0.06 | 89 | 1011.0 |
| 20260509180019 | 56 | 360 | 0.0 | 2.6 | 0.01 | 0.04 | 0.04 | 88 | 1011.1 |
| 20260509174521 | 56 | 241 | 0.9 | 2.6 | 0.03 | 0.04 | 0.04 | 89 | 1010.9 |
| 20260509173004 | 56 | 251 | 0.0 | 1.7 | 0.03 | 0.04 | 0.04 | 89 | 1010.9 |
| 20260509171508 | 55 | 346 | 0.0 | 1.7 | 0.04 | 0.04 | 0.04 | 88 | 1010.7 |
| 20260509170013 | 56 | 272 | 0.0 | 2.6 | 0.03 | 0.03 | 0.03 | 85 | 1010.7 |
| 20260509164519 | 56 | 328 | 0.9 | 7.0 | 0.01 | 0.01 | 0.01 | 85 | 1010.8 |
| 20260509163023 | 57 | 251 | 4.3 | 7.0 | 0.01 | 0.01 | 0.01 | 83 | 1011.0 |
| 20260509161504 | 57 | 248 | 2.6 | 7.8 | 0.00 | 0.00 | 0.00 | 82 | 1011.1 |
| 20260509160012 | 57 | 232 | 1.7 | 6.1 | 0.00 | 0.00 | 0.00 | 82 | 1011.1 |
| 20260509154521 | 57 | 227 | 4.3 | 12.2 | 0.00 | 0.00 | 0.00 | 80 | 1011.3 |
| 20260509153020 | 57 | 223 | 2.6 | 8.7 | 0.00 | 0.00 | 0.00 | 80 | 1011.4 |
| 20260509151526 | 57 | 202 | 1.7 | 6.1 | 0.00 | 0.00 | 0.00 | 81 | 1011.3 |
| 20260509150008 | 57 | 261 | 3.5 | 7.8 | 0.00 | 0.00 | 0.00 | 81 | 1011.2 |
| 20260509144519 | 57 | 248 | 3.5 | 7.0 | 0.00 | 0.00 | 0.00 | 80 | 1011.1 |
| 20260509143018 | 57 | 202 | 1.7 | 8.7 | 0.00 | 0.00 | 0.00 | 78 | 1011.0 |
| 20260509141522 | 56 | 259 | 3.5 | 6.1 | 0.00 | 0.00 | 0.00 | 78 | 1011.0 |
| 20260509140027 | 57 | 234 | 1.7 | 6.1 | 0.00 | 0.00 | 0.00 | 77 | 1010.9 |
| 20260509134510 | 56 | 221 | 2.6 | 7.8 | 0.00 | 0.00 | 0.00 | 78 | 1010.9 |
| 20260509133017 | 56 | 228 | 1.7 | 3.5 | 0.00 | 0.00 | 0.00 | 78 | 1010.7 |
| 20260509131517 | 56 | 234 | 1.7 | 5.2 | 0.00 | 0.00 | 0.00 | 78 | 1010.8 |
| 20260509130043 | 55 | 228 | 0.0 | 2.6 | 0.00 | 0.00 | 0.00 | 79 | 1010.9 |
| 20260509124508 | 55 | 240 | 0.9 | 3.5 | 0.00 | 0.00 | 0.00 | 79 | 1011.0 |
| 20260509123011 | 54 | 193 | 0.9 | 3.5 | 0.00 | 0.00 | 0.00 | 79 | 1010.8 |
| 20260509121518 | 54 | 235 | 0.9 | 3.5 | 0.00 | 0.00 | 0.00 | 79 | 1010.9 |
| 20260509120030 | 53 | 292 | 1.7 | 4.3 | 0.00 | 0.00 | 0.00 | 79 | 1010.9 |
| 20260509114525 | 53 | 238 | 0.9 | 2.6 | 0.00 | 0.00 | 0.00 | 79 | 1010.9 |
| 20260509113012 | 53 | 249 | 1.7 | 4.3 | 0.00 | 0.00 | 0.00 | 80 | 1010.7 |
| 20260509111516 | 52 | 117 | 0.0 | 3.5 | 0.00 | 0.00 | 0.00 | 82 | 1010.7 |
| 20260509110024 | 51 | 268 | 0.0 | 1.7 | 0.00 | 0.00 | 0.00 | 85 | 1010.7 |
| 20260509104526 | 50 | 242 | 0.0 | 0.0 | 0.00 | 0.00 | 0.00 | 85 | 1010.6 |
| 20260509103009 | 50 | 343 | 0.0 | 0.0 | 0.00 | 0.00 | 0.00 | 85 | 1010.4 |
| 20260509101516 | 50 | 333 | 0.0 | 0.0 | 0.00 | 0.00 | 0.00 | 84 | 1010.4 |
| 20260509100023 | 50 | 254 | 0.0 | 0.0 | 0.00 | 0.00 | 0.00 | 84 | 1010.6 |